createdAt,value
2023-10-10T00:00:27.912Z,0.00
2023-10-10T00:01:27.897Z,0.00
2023-10-10T00:02:27.909Z,0.00
2023-10-10T00:03:27.900Z,0.00
2023-10-10T00:04:27.783Z,0.00
2023-10-10T00:05:27.862Z,0.00
2023-10-10T00:06:27.763Z,0.00
2023-10-10T00:07:27.753Z,0.00
2023-10-10T00:08:27.758Z,0.00
2023-10-10T00:09:27.742Z,0.00
2023-10-10T00:10:27.726Z,0.00
2023-10-10T00:11:27.825Z,0.00
2023-10-10T00:12:27.740Z,0.00
2023-10-10T00:13:27.709Z,0.00
2023-10-10T00:14:27.716Z,0.00
2023-10-10T00:15:27.679Z,0.00
2023-10-10T00:16:27.753Z,0.00
2023-10-10T00:17:27.738Z,0.00
2023-10-10T00:18:27.650Z,0.00
2023-10-10T00:19:27.642Z,0.00
2023-10-10T00:20:27.668Z,0.00
2023-10-10T00:21:27.626Z,0.00
2023-10-10T00:22:27.616Z,0.00
2023-10-10T00:23:27.620Z,0.00
2023-10-10T00:24:27.598Z,0.00
2023-10-10T00:25:27.592Z,0.00
2023-10-10T00:26:27.702Z,0.00
2023-10-10T00:27:27.571Z,0.00
2023-10-10T00:28:27.557Z,0.00
2023-10-10T00:29:27.889Z,0.00
2023-10-10T00:30:27.538Z,0.00
2023-10-10T00:31:27.582Z,0.00
2023-10-10T00:32:27.691Z,0.00
2023-10-10T00:33:27.510Z,0.00
2023-10-10T00:34:27.500Z,0.00
2023-10-10T00:35:27.568Z,0.00
2023-10-10T00:36:27.481Z,0.00
2023-10-10T00:37:27.469Z,0.00
2023-10-10T00:38:27.509Z,0.00
2023-10-10T00:39:27.455Z,0.00
2023-10-10T00:40:27.444Z,0.00
2023-10-10T00:41:27.477Z,0.00
2023-10-10T00:42:27.432Z,0.00
2023-10-10T00:43:27.414Z,0.00
2023-10-10T00:44:27.516Z,0.00
2023-10-10T00:45:27.401Z,0.00
2023-10-10T00:46:27.421Z,0.00
2023-10-10T00:47:27.600Z,0.00
2023-10-10T00:48:27.412Z,0.00
2023-10-10T00:49:27.365Z,0.00
2023-10-10T00:50:27.382Z,0.00
2023-10-10T00:51:27.335Z,0.00
2023-10-10T00:52:27.330Z,0.00
2023-10-10T00:53:27.402Z,0.00
2023-10-10T00:54:27.320Z,0.00
2023-10-10T00:55:27.298Z,0.00
2023-10-10T00:56:27.327Z,0.00
2023-10-10T00:57:27.277Z,0.00
2023-10-10T00:58:27.270Z,0.00
2023-10-10T00:59:27.359Z,0.00
2023-10-10T01:00:27.251Z,0.00
2023-10-10T01:01:27.289Z,0.00
2023-10-10T01:02:27.387Z,0.00
2023-10-10T01:03:27.447Z,0.00
2023-10-10T01:04:27.242Z,0.00
2023-10-10T01:05:27.229Z,0.00
2023-10-10T01:06:27.262Z,0.00
2023-10-10T01:07:27.272Z,0.00
2023-10-10T01:08:27.209Z,0.00
2023-10-10T01:09:27.164Z,0.00
2023-10-10T01:10:27.152Z,0.00
2023-10-10T01:11:27.192Z,0.00
2023-10-10T01:12:27.139Z,0.00
2023-10-10T01:13:27.123Z,0.00
2023-10-10T01:14:27.137Z,0.00
2023-10-10T01:15:27.120Z,0.00
2023-10-10T01:16:27.121Z,0.00
2023-10-10T01:17:27.154Z,0.00
2023-10-10T01:18:27.098Z,0.00
2023-10-10T01:19:27.066Z,0.00
2023-10-10T01:20:27.185Z,0.00
2023-10-10T01:21:27.045Z,0.00
2023-10-10T01:22:27.034Z,0.00
2023-10-10T01:23:27.057Z,0.00
2023-10-10T01:24:27.022Z,0.00
2023-10-10T01:25:27.007Z,0.00
2023-10-10T01:26:27.029Z,0.00
2023-10-10T01:27:26.984Z,0.00
2023-10-10T01:28:26.978Z,0.00
2023-10-10T01:29:27.291Z,0.00
2023-10-10T01:30:26.958Z,0.00
2023-10-10T01:31:26.960Z,0.00
2023-10-10T01:32:26.967Z,0.00
2023-10-10T01:33:26.930Z,0.00
2023-10-10T01:34:26.920Z,0.00
2023-10-10T01:35:27.011Z,0.00
2023-10-10T01:36:26.926Z,0.00
2023-10-10T01:37:26.889Z,0.00
2023-10-10T01:38:26.907Z,0.00
2023-10-10T01:39:26.868Z,0.00
2023-10-10T01:40:26.861Z,0.00
2023-10-10T01:41:26.888Z,0.00
2023-10-10T01:42:26.845Z,0.00
2023-10-10T01:43:26.826Z,0.00
2023-10-10T01:44:26.859Z,0.00
2023-10-10T01:45:26.809Z,0.00
2023-10-10T01:46:26.823Z,0.00
2023-10-10T01:47:26.931Z,0.00
2023-10-10T01:48:26.807Z,0.00
2023-10-10T01:49:26.834Z,0.00
2023-10-10T01:50:27.055Z,0.00
2023-10-10T01:51:26.745Z,0.00
2023-10-10T01:52:26.772Z,0.00
2023-10-10T01:53:26.742Z,0.00
2023-10-10T01:54:26.717Z,0.00
2023-10-10T01:55:26.710Z,0.00
2023-10-10T01:56:26.716Z,0.00
2023-10-10T01:57:26.688Z,0.00
2023-10-10T01:58:26.678Z,0.00
2023-10-10T01:59:26.787Z,0.00
2023-10-10T02:00:26.741Z,0.00
2023-10-10T02:01:26.698Z,0.00
2023-10-10T02:02:26.771Z,0.00
2023-10-10T02:03:26.783Z,0.00
2023-10-10T02:04:26.619Z,0.00
2023-10-10T02:05:26.690Z,0.00
2023-10-10T02:06:26.609Z,0.00
2023-10-10T02:07:26.592Z,0.00
2023-10-10T02:08:26.632Z,0.00
2023-10-10T02:09:26.567Z,0.00
2023-10-10T02:10:26.559Z,0.00
2023-10-10T02:11:26.596Z,0.00
2023-10-10T02:12:26.544Z,0.00
2023-10-10T02:13:26.546Z,0.00
2023-10-10T02:14:26.810Z,0.00
2023-10-10T02:15:26.511Z,0.00
2023-10-10T02:16:26.554Z,0.00
2023-10-10T02:17:26.556Z,0.00
2023-10-10T02:18:26.481Z,0.00
2023-10-10T02:19:26.473Z,0.00
2023-10-10T02:20:26.519Z,0.00
2023-10-10T02:21:26.453Z,0.00
2023-10-10T02:22:26.442Z,0.00
2023-10-10T02:23:26.436Z,0.00
2023-10-10T02:24:26.461Z,0.00
2023-10-10T02:25:26.410Z,0.00
2023-10-10T02:26:26.491Z,0.00
2023-10-10T02:27:26.390Z,0.00
2023-10-10T02:28:26.391Z,0.00
2023-10-10T02:29:26.409Z,0.00
2023-10-10T02:30:26.374Z,0.00
2023-10-10T02:31:26.349Z,0.00
2023-10-10T02:32:26.426Z,0.00
2023-10-10T02:33:26.333Z,0.00
2023-10-10T02:34:26.323Z,0.00
2023-10-10T02:35:26.332Z,0.00
2023-10-10T02:36:26.299Z,0.00
2023-10-10T02:37:26.290Z,0.00
2023-10-10T02:38:26.301Z,0.00
2023-10-10T02:39:26.269Z,0.00
2023-10-10T02:40:26.280Z,0.00
2023-10-10T02:41:26.389Z,0.00
2023-10-10T02:42:26.239Z,0.00
2023-10-10T02:43:26.228Z,0.00
2023-10-10T02:44:26.243Z,0.00
2023-10-10T02:45:26.212Z,0.00
2023-10-10T02:46:26.237Z,0.00
2023-10-10T02:47:26.214Z,0.00
2023-10-10T02:48:26.180Z,0.00
2023-10-10T02:49:26.170Z,0.00
2023-10-10T02:50:26.205Z,0.00
2023-10-10T02:51:26.150Z,0.00
2023-10-10T02:52:26.141Z,0.00
2023-10-10T02:53:26.146Z,0.00
2023-10-10T02:54:26.113Z,0.00
2023-10-10T02:55:26.107Z,0.00
2023-10-10T02:56:26.139Z,0.00
2023-10-10T02:57:26.088Z,0.00
2023-10-10T02:58:26.073Z,0.00
2023-10-10T02:59:26.126Z,0.00
2023-10-10T03:00:26.062Z,0.00
2023-10-10T03:01:26.068Z,0.00
2023-10-10T03:02:26.060Z,0.00
2023-10-10T03:03:26.239Z,0.00
2023-10-10T03:04:26.040Z,0.00
2023-10-10T03:05:26.035Z,0.00
2023-10-10T03:06:25.995Z,0.00
2023-10-10T03:07:25.981Z,0.00
2023-10-10T03:08:25.999Z,0.00
2023-10-10T03:09:25.961Z,0.00
2023-10-10T03:10:25.952Z,0.00
2023-10-10T03:11:25.953Z,0.00
2023-10-10T03:12:25.962Z,0.00
2023-10-10T03:13:25.920Z,0.00
2023-10-10T03:14:25.970Z,0.00
2023-10-10T03:15:25.902Z,0.00
2023-10-10T03:16:25.944Z,0.00
2023-10-10T03:17:25.969Z,0.00
2023-10-10T03:18:25.873Z,0.00
2023-10-10T03:19:25.862Z,0.00
2023-10-10T03:20:25.868Z,0.00
2023-10-10T03:21:25.835Z,0.00
2023-10-10T03:22:25.824Z,0.00
2023-10-10T03:23:25.833Z,0.00
2023-10-10T03:24:25.810Z,0.00
2023-10-10T03:25:25.819Z,0.00
2023-10-10T03:26:25.876Z,0.00
2023-10-10T03:27:25.779Z,0.00
2023-10-10T03:28:25.786Z,0.00
2023-10-10T03:29:25.821Z,0.00
2023-10-10T03:30:25.755Z,0.00
2023-10-10T03:31:25.840Z,0.00
2023-10-10T03:32:25.839Z,0.00
2023-10-10T03:33:25.775Z,0.00
2023-10-10T03:34:25.709Z,0.00
2023-10-10T03:35:25.725Z,0.00
2023-10-10T03:36:25.682Z,0.00
2023-10-10T03:37:25.672Z,0.00
2023-10-10T03:38:25.747Z,0.00
2023-10-10T03:39:25.652Z,0.00
2023-10-10T03:40:25.640Z,0.00
2023-10-10T03:41:25.682Z,0.00
2023-10-10T03:42:25.618Z,0.00
2023-10-10T03:43:25.611Z,0.00
2023-10-10T03:44:25.647Z,0.00
2023-10-10T03:45:25.585Z,0.00
2023-10-10T03:46:25.631Z,0.00
2023-10-10T03:47:25.595Z,0.00
2023-10-10T03:48:25.559Z,0.00
2023-10-10T03:49:25.544Z,0.00
2023-10-10T03:50:25.664Z,0.00
2023-10-10T03:51:25.524Z,0.00
2023-10-10T03:52:25.553Z,0.00
2023-10-10T03:53:25.591Z,0.00
2023-10-10T03:55:25.487Z,0.00
2023-10-10T03:56:25.566Z,0.00
2023-10-10T03:57:25.464Z,0.00
2023-10-10T03:58:25.452Z,0.00
2023-10-10T03:59:25.612Z,0.00
2023-10-10T04:00:25.489Z,0.00
2023-10-10T04:01:25.441Z,0.00
2023-10-10T04:02:25.421Z,0.00
2023-10-10T04:03:25.533Z,0.00
2023-10-10T04:04:25.423Z,0.00
2023-10-10T04:06:25.374Z,0.00
2023-10-10T04:07:25.359Z,0.00
2023-10-10T04:08:25.393Z,0.00
2023-10-10T04:09:25.338Z,0.00
2023-10-10T04:10:25.341Z,0.00
2023-10-10T04:11:25.339Z,0.00
2023-10-10T04:12:25.306Z,0.00
2023-10-10T04:13:25.306Z,0.00
2023-10-10T04:14:25.354Z,0.00
2023-10-10T04:15:25.331Z,0.00
2023-10-10T04:16:25.379Z,0.00
2023-10-10T04:17:25.299Z,0.00
2023-10-10T04:18:25.258Z,0.00
2023-10-10T04:19:25.232Z,0.00
2023-10-10T04:20:25.236Z,0.00
2023-10-10T04:21:25.215Z,0.00
2023-10-10T04:22:25.216Z,0.00
2023-10-10T04:23:25.255Z,0.00
2023-10-10T04:24:25.179Z,0.00
2023-10-10T04:25:25.170Z,0.00
2023-10-10T04:26:25.238Z,0.00
2023-10-10T04:27:25.156Z,0.00
2023-10-10T04:28:25.138Z,0.00
2023-10-10T04:29:25.188Z,0.00
2023-10-10T04:30:25.114Z,0.00
2023-10-10T04:31:25.165Z,0.00
2023-10-10T04:32:25.181Z,0.00
2023-10-10T04:33:25.131Z,0.00
2023-10-10T04:34:25.078Z,0.00
2023-10-10T04:35:25.085Z,0.00
2023-10-10T04:36:25.065Z,0.00
2023-10-10T04:37:25.046Z,0.00
2023-10-10T04:38:25.080Z,0.00
2023-10-10T04:39:25.020Z,0.00
2023-10-10T04:40:25.009Z,0.00
2023-10-10T04:41:25.043Z,0.00
2023-10-10T04:42:24.992Z,0.00
2023-10-10T04:43:24.982Z,0.00
2023-10-10T04:44:24.988Z,0.00
2023-10-10T04:45:24.956Z,0.00
2023-10-10T04:46:24.955Z,0.00
2023-10-10T04:47:24.962Z,0.00
2023-10-10T04:48:24.987Z,0.00
2023-10-10T04:49:24.918Z,0.00
2023-10-10T04:50:24.956Z,0.00
2023-10-10T04:51:24.893Z,0.00
2023-10-10T04:52:24.884Z,0.00
2023-10-10T04:53:24.929Z,0.00
2023-10-10T04:54:24.858Z,0.00
2023-10-10T04:55:24.852Z,0.00
2023-10-10T04:56:24.879Z,0.00
2023-10-10T04:57:24.837Z,0.00
2023-10-10T04:58:24.832Z,0.00
2023-10-10T04:59:24.816Z,0.00
2023-10-10T05:00:24.807Z,0.00
2023-10-10T05:01:24.841Z,0.00
2023-10-10T05:02:24.804Z,0.00
2023-10-10T05:03:24.838Z,0.00
2023-10-10T05:04:24.876Z,0.00
2023-10-10T05:05:24.771Z,0.00
2023-10-10T05:06:24.747Z,0.00
2023-10-10T05:07:24.723Z,0.00
2023-10-10T05:08:24.809Z,0.00
2023-10-10T05:09:24.702Z,0.00
2023-10-10T05:10:24.696Z,0.00
2023-10-10T05:11:24.724Z,0.00
2023-10-10T05:12:24.668Z,0.00
2023-10-10T05:13:24.662Z,0.00
2023-10-10T05:14:24.712Z,0.00
2023-10-10T05:15:24.648Z,0.00
2023-10-10T05:16:24.635Z,0.00
2023-10-10T05:17:24.709Z,0.00
2023-10-10T05:18:24.638Z,0.00
2023-10-10T05:19:24.594Z,0.00
2023-10-10T05:20:24.645Z,0.00
2023-10-10T05:21:24.576Z,0.00
2023-10-10T05:22:24.562Z,0.00
2023-10-10T05:23:24.564Z,0.00
2023-10-10T05:24:24.546Z,0.00
2023-10-10T05:25:24.892Z,0.00
2023-10-10T05:26:24.540Z,0.00
2023-10-10T05:27:24.508Z,0.00
2023-10-10T05:28:24.513Z,0.00
2023-10-10T05:29:24.529Z,0.00
2023-10-10T05:30:24.549Z,0.00
2023-10-10T05:31:24.487Z,0.00
2023-10-10T05:32:24.549Z,0.00
2023-10-10T05:33:24.471Z,0.00
2023-10-10T05:34:24.627Z,0.00
2023-10-10T05:35:24.454Z,0.00
2023-10-10T05:36:24.431Z,0.00
2023-10-10T05:37:24.400Z,0.00
2023-10-10T05:38:24.400Z,0.00
2023-10-10T05:39:24.382Z,0.00
2023-10-10T05:40:24.372Z,0.00
2023-10-10T05:41:24.404Z,0.00
2023-10-10T05:42:24.346Z,0.00
2023-10-10T05:43:24.336Z,5.63
2023-10-10T05:44:24.345Z,5.63
2023-10-10T05:45:24.316Z,5.63
2023-10-10T05:46:24.353Z,5.63
2023-10-10T05:47:24.322Z,5.63
2023-10-10T05:48:24.319Z,5.63
2023-10-10T05:49:24.286Z,5.63
2023-10-10T05:50:24.336Z,5.63
2023-10-10T05:51:24.255Z,5.63
2023-10-10T05:52:24.266Z,11.25
2023-10-10T05:53:24.264Z,11.25
2023-10-10T05:54:24.220Z,11.25
2023-10-10T05:55:24.208Z,11.25
2023-10-10T05:56:24.294Z,11.25
2023-10-10T05:57:24.187Z,11.25
2023-10-10T05:58:24.178Z,11.25
2023-10-10T05:59:24.184Z,16.88
2023-10-10T06:00:24.154Z,16.88
2023-10-10T06:01:24.168Z,16.88
2023-10-10T06:02:24.234Z,16.88
2023-10-10T06:03:24.203Z,16.88
2023-10-10T06:04:24.166Z,16.88
2023-10-10T06:05:24.161Z,16.88
2023-10-10T06:06:24.108Z,22.50
2023-10-10T06:07:24.078Z,22.50
2023-10-10T06:08:24.110Z,22.50
2023-10-10T06:09:24.056Z,22.50
2023-10-10T06:10:24.047Z,28.13
2023-10-10T06:11:24.082Z,28.13
2023-10-10T06:12:24.026Z,28.13
2023-10-10T06:13:24.025Z,28.13
2023-10-10T06:14:24.045Z,28.13
2023-10-10T06:15:23.995Z,33.75
2023-10-10T06:16:24.074Z,33.75
2023-10-10T06:17:24.130Z,33.75
2023-10-10T06:18:24.036Z,33.75
2023-10-10T06:19:23.952Z,33.75
2023-10-10T06:20:23.955Z,39.38
2023-10-10T06:21:23.929Z,39.38
2023-10-10T06:22:23.919Z,39.38
2023-10-10T06:23:23.992Z,39.38
2023-10-10T06:24:23.926Z,39.38
2023-10-10T06:25:23.889Z,39.38
2023-10-10T06:26:23.900Z,39.38
2023-10-10T06:27:26.262Z,39.38
2023-10-10T06:28:23.903Z,39.38
2023-10-10T06:29:23.856Z,45.00
2023-10-10T06:30:23.842Z,45.00
2023-10-10T06:31:23.878Z,45.00
2023-10-10T06:32:23.892Z,45.00
2023-10-10T06:33:23.878Z,45.00
2023-10-10T06:34:24.126Z,45.00
2023-10-10T06:35:23.806Z,45.00
2023-10-10T06:36:24.220Z,45.00
2023-10-10T06:37:23.764Z,45.00
2023-10-10T06:38:23.781Z,50.63
2023-10-10T06:39:23.746Z,50.63
2023-10-10T06:40:23.756Z,50.63
2023-10-10T06:41:23.784Z,50.63
2023-10-10T06:42:23.719Z,50.63
2023-10-10T06:43:23.702Z,50.63
2023-10-10T06:44:23.737Z,50.63
2023-10-10T06:45:23.680Z,50.63
2023-10-10T06:46:23.674Z,50.63
2023-10-10T06:47:23.687Z,56.25
2023-10-10T06:48:23.695Z,56.25
2023-10-10T06:49:23.661Z,50.63
2023-10-10T06:50:23.646Z,50.63
2023-10-10T06:51:23.616Z,50.63
2023-10-10T06:52:23.612Z,50.63
2023-10-10T06:53:23.666Z,56.25
2023-10-10T06:54:23.590Z,56.25
2023-10-10T06:55:23.581Z,56.25
2023-10-10T06:56:23.626Z,61.88
2023-10-10T06:57:23.570Z,67.50
2023-10-10T06:58:23.552Z,67.50
2023-10-10T06:59:23.562Z,78.75
2023-10-10T07:00:23.580Z,73.13
2023-10-10T07:01:23.559Z,73.13
2023-10-10T07:02:23.521Z,78.75
2023-10-10T07:03:23.538Z,73.13
2023-10-10T07:04:23.512Z,73.13
2023-10-10T07:05:23.516Z,78.75
2023-10-10T07:06:23.483Z,73.13
2023-10-10T07:07:23.469Z,73.13
2023-10-10T07:08:23.488Z,73.13
2023-10-10T07:09:23.448Z,73.13
2023-10-10T07:10:23.430Z,73.13
2023-10-10T07:11:23.459Z,73.13
2023-10-10T07:12:23.433Z,67.50
2023-10-10T07:13:23.402Z,67.50
2023-10-10T07:14:23.424Z,67.50
2023-10-10T07:15:23.430Z,61.88
2023-10-10T07:16:23.413Z,61.88
2023-10-10T07:17:23.409Z,61.88
2023-10-10T07:18:23.566Z,61.88
2023-10-10T07:19:23.349Z,56.25
2023-10-10T07:20:23.358Z,56.25
2023-10-10T07:21:23.327Z,56.25
2023-10-10T07:22:23.319Z,56.25
2023-10-10T07:23:23.336Z,56.25
2023-10-10T07:24:24.307Z,50.63
2023-10-10T07:25:23.326Z,50.63
2023-10-10T07:26:23.298Z,50.63
2023-10-10T07:27:24.117Z,50.63
2023-10-10T07:28:23.290Z,50.63
2023-10-10T07:29:23.336Z,50.63
2023-10-10T07:30:23.244Z,50.63
2023-10-10T07:31:23.353Z,56.25
2023-10-10T07:32:23.244Z,56.25
2023-10-10T07:33:23.297Z,56.25
2023-10-10T07:34:23.210Z,56.25
2023-10-10T07:35:23.243Z,56.25
2023-10-10T07:36:23.195Z,56.25
2023-10-10T07:37:23.180Z,56.25
2023-10-10T07:38:23.187Z,61.88
2023-10-10T07:39:23.162Z,56.25
2023-10-10T07:40:23.155Z,56.25
2023-10-10T07:41:23.190Z,61.88
2023-10-10T07:42:23.137Z,61.88
2023-10-10T07:43:23.126Z,61.88
2023-10-10T07:44:23.173Z,61.88
2023-10-10T07:45:23.109Z,67.50
2023-10-10T07:46:23.155Z,67.50
2023-10-10T07:47:23.140Z,73.13
2023-10-10T07:48:23.151Z,73.13
2023-10-10T07:49:23.074Z,73.13
2023-10-10T07:50:23.100Z,73.13
2023-10-10T07:51:23.056Z,73.13
2023-10-10T07:52:23.050Z,73.13
2023-10-10T07:53:23.062Z,78.75
2023-10-10T07:54:23.032Z,73.13
2023-10-10T07:55:23.024Z,73.13
2023-10-10T07:56:23.032Z,73.13
2023-10-10T07:57:23.011Z,73.13
2023-10-10T07:58:28.607Z,78.75
2023-10-10T07:59:23.066Z,78.75
2023-10-10T08:00:23.005Z,78.75
2023-10-10T08:01:22.983Z,84.38
2023-10-10T08:02:22.991Z,84.38
2023-10-10T08:03:23.004Z,84.38
2023-10-10T08:04:23.173Z,84.38
2023-10-10T08:05:22.946Z,90.00
2023-10-10T08:06:23.590Z,90.00
2023-10-10T08:07:22.923Z,95.63
2023-10-10T08:08:22.949Z,95.63
2023-10-10T08:09:22.905Z,95.63
2023-10-10T08:10:22.913Z,101.25
2023-10-10T08:11:22.921Z,106.88
2023-10-10T08:12:22.882Z,106.88
2023-10-10T08:13:22.874Z,106.88
2023-10-10T08:14:22.914Z,106.88
2023-10-10T08:15:22.860Z,112.50
2023-10-10T08:16:22.938Z,106.88
2023-10-10T08:17:22.926Z,112.50
2023-10-10T08:18:22.949Z,106.88
2023-10-10T08:19:22.828Z,106.88
2023-10-10T08:20:22.912Z,106.88
2023-10-10T08:21:22.810Z,106.88
2023-10-10T08:22:22.805Z,101.25
2023-10-10T08:23:22.816Z,101.25
2023-10-10T08:24:22.791Z,101.25
2023-10-10T08:25:22.785Z,101.25
2023-10-10T08:26:23.054Z,101.25
2023-10-10T08:27:22.767Z,95.63
2023-10-10T08:28:22.762Z,95.63
2023-10-10T08:29:22.785Z,90.00
2023-10-10T08:30:22.754Z,90.00
2023-10-10T08:31:22.789Z,90.00
2023-10-10T08:32:22.906Z,84.38
2023-10-10T08:33:22.833Z,84.38
2023-10-10T08:34:23.552Z,84.38
2023-10-10T08:35:22.740Z,84.38
2023-10-10T08:36:22.705Z,84.38
2023-10-10T08:37:22.693Z,84.38
2023-10-10T08:38:22.687Z,84.38
2023-10-10T08:39:22.678Z,84.38
2023-10-10T08:40:22.675Z,84.38
2023-10-10T08:41:22.682Z,84.38
2023-10-10T08:42:23.665Z,84.38
2023-10-10T08:43:22.652Z,78.75
2023-10-10T08:44:22.681Z,84.38
2023-10-10T08:45:22.638Z,78.75
2023-10-10T08:46:22.695Z,78.75
2023-10-10T08:47:22.675Z,78.75
2023-10-10T08:48:22.699Z,84.38
2023-10-10T08:49:22.613Z,84.38
2023-10-10T08:50:22.620Z,84.38
2023-10-10T08:51:22.595Z,84.38
2023-10-10T08:52:22.592Z,84.38
2023-10-10T08:53:22.655Z,84.38
2023-10-10T08:54:22.716Z,84.38
2023-10-10T08:55:22.580Z,84.38
2023-10-10T08:56:22.649Z,78.75
2023-10-10T08:57:22.560Z,78.75
2023-10-10T08:58:22.550Z,78.75
2023-10-10T08:59:22.633Z,84.38
2023-10-10T09:00:22.594Z,84.38
2023-10-10T09:01:22.590Z,84.38
2023-10-10T09:02:22.598Z,84.38
2023-10-10T09:03:22.621Z,78.75
2023-10-10T09:04:22.626Z,78.75
2023-10-10T09:05:22.509Z,84.38
2023-10-10T09:06:22.515Z,84.38
2023-10-10T09:07:22.488Z,84.38
2023-10-10T09:08:22.496Z,84.38
2023-10-10T09:09:22.479Z,84.38
2023-10-10T09:10:22.473Z,84.38
2023-10-10T09:11:22.570Z,84.38
2023-10-10T09:12:22.456Z,84.38
2023-10-10T09:13:22.450Z,84.38
2023-10-10T09:14:22.455Z,84.38
2023-10-10T09:15:22.443Z,84.38
2023-10-10T09:16:22.451Z,84.38
2023-10-10T09:17:22.449Z,84.38
2023-10-10T09:18:22.470Z,84.38
2023-10-10T09:19:22.414Z,84.38
2023-10-10T09:20:22.484Z,84.38
2023-10-10T09:21:22.460Z,84.38
2023-10-10T09:22:22.389Z,101.25
2023-10-10T09:23:22.401Z,101.25
2023-10-10T09:24:22.376Z,101.25
2023-10-10T09:25:22.375Z,101.25
2023-10-10T09:26:22.403Z,106.88
2023-10-10T09:27:22.362Z,101.25
2023-10-10T09:28:22.355Z,106.88
2023-10-10T09:29:22.415Z,106.88
2023-10-10T09:30:22.357Z,112.50
2023-10-10T09:31:22.340Z,106.88
2023-10-10T09:32:22.371Z,106.88
2023-10-10T09:33:22.397Z,106.88
2023-10-10T09:34:22.313Z,112.50
2023-10-10T09:35:22.405Z,106.88
2023-10-10T09:36:22.330Z,106.88
2023-10-10T09:37:22.305Z,112.50
2023-10-10T09:38:22.336Z,118.13
2023-10-10T09:39:22.299Z,112.50
2023-10-10T09:40:22.280Z,106.88
2023-10-10T09:41:22.311Z,106.88
2023-10-10T09:42:22.266Z,106.88
2023-10-10T09:43:22.264Z,106.88
2023-10-10T09:44:22.413Z,101.25
2023-10-10T09:45:22.253Z,101.25
2023-10-10T09:46:22.262Z,101.25
2023-10-10T09:47:22.245Z,106.88
2023-10-10T09:48:22.254Z,106.88
2023-10-10T09:49:22.239Z,106.88
2023-10-10T09:50:22.244Z,106.88
2023-10-10T09:51:22.218Z,106.88
2023-10-10T09:52:22.233Z,106.88
2023-10-10T09:53:22.309Z,101.25
2023-10-10T09:54:22.280Z,101.25
2023-10-10T09:55:22.198Z,95.63
2023-10-10T09:56:22.243Z,90.00
2023-10-10T09:57:22.187Z,84.38
2023-10-10T09:58:22.181Z,84.38
2023-10-10T09:59:22.333Z,90.00
2023-10-10T10:00:27.676Z,90.00
2023-10-10T10:01:22.189Z,84.38
2023-10-10T10:02:22.194Z,84.38
2023-10-10T10:03:22.172Z,90.00
2023-10-10T10:04:22.151Z,90.00
2023-10-10T10:05:22.169Z,90.00
2023-10-10T10:06:22.139Z,90.00
2023-10-10T10:07:22.138Z,95.63
2023-10-10T10:08:22.188Z,95.63
2023-10-10T10:09:22.128Z,90.00
2023-10-10T10:10:22.125Z,95.63
2023-10-10T10:11:22.128Z,90.00
2023-10-10T10:12:22.109Z,90.00
2023-10-10T10:13:22.105Z,84.38
2023-10-10T10:14:22.628Z,84.38
2023-10-10T10:15:22.100Z,84.38
2023-10-10T10:16:22.117Z,84.38
2023-10-10T10:17:22.195Z,84.38
2023-10-10T10:18:22.114Z,90.00
2023-10-10T10:19:22.079Z,84.38
2023-10-10T10:20:22.094Z,90.00
2023-10-10T10:21:22.067Z,84.38
2023-10-10T10:22:22.057Z,84.38
2023-10-10T10:23:22.074Z,78.75
2023-10-10T10:24:22.072Z,90.00
2023-10-10T10:25:22.046Z,95.63
2023-10-10T10:26:22.122Z,90.00
2023-10-10T10:27:22.034Z,95.63
2023-10-10T10:28:22.034Z,95.63
2023-10-10T10:29:22.097Z,101.25
2023-10-10T10:30:22.016Z,101.25
2023-10-10T10:31:22.023Z,101.25
2023-10-10T10:32:22.034Z,90.00
2023-10-10T10:33:22.021Z,90.00
2023-10-10T10:34:21.996Z,90.00
2023-10-10T10:35:22.052Z,101.25
2023-10-10T10:36:22.060Z,95.63
2023-10-10T10:37:22.025Z,95.63
2023-10-10T10:38:22.019Z,95.63
2023-10-10T10:39:21.997Z,84.38
2023-10-10T10:40:22.007Z,101.25
2023-10-10T10:41:22.005Z,95.63
2023-10-10T10:42:22.020Z,106.88
2023-10-10T10:43:21.985Z,112.50
2023-10-10T10:44:21.958Z,101.25
2023-10-10T10:45:21.954Z,106.88
2023-10-10T10:46:22.443Z,106.88
2023-10-10T10:47:21.956Z,101.25
2023-10-10T10:48:21.975Z,106.88
2023-10-10T10:49:21.937Z,106.88
2023-10-10T10:50:21.978Z,106.88
2023-10-10T10:51:21.926Z,101.25
2023-10-10T10:52:21.913Z,106.88
2023-10-10T10:53:22.028Z,106.88
2023-10-10T10:54:21.902Z,106.88
2023-10-10T10:55:21.901Z,106.88
2023-10-10T10:56:22.033Z,106.88
2023-10-10T10:57:25.521Z,112.50
2023-10-10T10:58:22.088Z,106.88
2023-10-10T10:59:22.200Z,112.50
2023-10-10T11:00:21.909Z,118.13
2023-10-10T11:01:21.898Z,118.13
2023-10-10T11:02:21.890Z,112.50
2023-10-10T11:03:21.954Z,118.13
2023-10-10T11:04:21.859Z,123.75
2023-10-10T11:05:21.917Z,123.75
2023-10-10T11:06:21.844Z,129.38
2023-10-10T11:07:21.848Z,129.38
2023-10-10T11:08:21.856Z,123.75
2023-10-10T11:09:22.085Z,123.75
2023-10-10T11:10:21.830Z,123.75
2023-10-10T11:11:21.843Z,123.75
2023-10-10T11:12:21.844Z,129.38
2023-10-10T11:13:21.827Z,129.38
2023-10-10T11:14:21.847Z,129.38
2023-10-10T11:15:21.828Z,129.38
2023-10-10T11:16:21.825Z,129.38
2023-10-10T11:17:21.856Z,129.38
2023-10-10T11:18:23.359Z,129.38
2023-10-10T11:19:21.797Z,129.38
2023-10-10T11:20:21.898Z,123.75
2023-10-10T11:21:21.789Z,129.38
2023-10-10T11:22:21.784Z,129.38
2023-10-10T11:23:24.111Z,129.38
2023-10-10T11:24:21.776Z,129.38
2023-10-10T11:25:21.792Z,129.38
2023-10-10T11:26:21.803Z,129.38
2023-10-10T11:27:21.771Z,129.38
2023-10-10T11:28:22.115Z,129.38
2023-10-10T11:29:21.771Z,129.38
2023-10-10T11:30:21.757Z,129.38
2023-10-10T11:31:21.776Z,129.38
2023-10-10T11:32:21.765Z,129.38
2023-10-10T11:33:21.829Z,118.13
2023-10-10T11:34:21.743Z,129.38
2023-10-10T11:35:21.760Z,123.75
2023-10-10T11:36:21.738Z,129.38
2023-10-10T11:37:24.842Z,129.38
2023-10-10T11:38:21.765Z,129.38
2023-10-10T11:39:21.729Z,129.38
2023-10-10T11:40:21.729Z,129.38
2023-10-10T11:41:21.770Z,129.38
2023-10-10T11:42:21.718Z,129.38
2023-10-10T11:43:21.720Z,118.13
2023-10-10T11:44:21.768Z,118.13
2023-10-10T11:45:21.763Z,112.50
2023-10-10T11:46:21.806Z,118.13
2023-10-10T11:47:21.716Z,123.75
2023-10-10T11:48:21.746Z,123.75
2023-10-10T11:49:21.699Z,112.50
2023-10-10T11:50:21.716Z,112.50
2023-10-10T11:51:21.695Z,106.88
2023-10-10T11:52:21.704Z,106.88
2023-10-10T11:53:21.722Z,106.88
2023-10-10T11:54:21.683Z,106.88
2023-10-10T11:55:21.705Z,101.25
2023-10-10T11:56:21.687Z,90.00
2023-10-10T11:57:21.679Z,95.63
2023-10-10T11:58:21.672Z,95.63
2023-10-10T11:59:21.717Z,95.63
2023-10-10T12:00:27.546Z,95.63
2023-10-10T12:01:21.789Z,106.88
2023-10-10T12:02:21.667Z,106.88
2023-10-10T12:03:21.828Z,101.25
2023-10-10T12:04:21.762Z,101.25
2023-10-10T12:05:21.686Z,101.25
2023-10-10T12:06:21.651Z,101.25
2023-10-10T12:07:21.657Z,90.00
2023-10-10T12:08:21.668Z,95.63
2023-10-10T12:09:21.645Z,90.00
2023-10-10T12:10:21.641Z,101.25
2023-10-10T12:11:21.957Z,90.00
2023-10-10T12:12:22.885Z,78.75
2023-10-10T12:13:21.645Z,84.38
2023-10-10T12:14:21.641Z,101.25
2023-10-10T12:15:21.678Z,101.25
2023-10-10T12:17:21.683Z,95.63
2023-10-10T12:18:21.698Z,78.75
2023-10-10T12:19:21.630Z,90.00
2023-10-10T12:20:21.669Z,106.88
2023-10-10T12:21:21.613Z,106.88
2023-10-10T12:22:21.617Z,106.88
2023-10-10T12:23:21.655Z,106.88
2023-10-10T12:24:21.629Z,106.88
2023-10-10T12:25:21.603Z,106.88
2023-10-10T12:26:21.615Z,106.88
2023-10-10T12:27:21.595Z,101.25
2023-10-10T12:28:21.633Z,95.63
2023-10-10T12:29:22.930Z,90.00
2023-10-10T12:30:21.620Z,95.63
2023-10-10T12:31:21.612Z,95.63
2023-10-10T12:32:21.621Z,101.25
2023-10-10T12:33:21.688Z,101.25
2023-10-10T12:34:21.579Z,101.25
2023-10-10T12:35:21.617Z,90.00
2023-10-10T12:36:21.574Z,90.00
2023-10-10T12:37:21.567Z,84.38
2023-10-10T12:38:21.590Z,84.38
2023-10-10T12:39:21.560Z,84.38
2023-10-10T12:40:21.564Z,84.38
2023-10-10T12:41:21.668Z,84.38
2023-10-10T12:42:21.554Z,84.38
2023-10-10T12:43:21.552Z,84.38
2023-10-10T12:44:21.626Z,84.38
2023-10-10T12:45:21.546Z,84.38
2023-10-10T12:46:21.631Z,84.38
2023-10-10T12:47:21.569Z,84.38
2023-10-10T12:48:21.810Z,84.38
2023-10-10T12:49:21.555Z,84.38
2023-10-10T12:50:21.553Z,84.38
2023-10-10T12:51:21.579Z,90.00
2023-10-10T12:52:21.532Z,90.00
2023-10-10T12:53:21.567Z,84.38
2023-10-10T12:54:21.542Z,90.00
2023-10-10T12:55:21.519Z,84.38
2023-10-10T12:56:21.625Z,84.38
2023-10-10T12:57:21.522Z,84.38
2023-10-10T12:58:21.512Z,84.38
2023-10-10T12:59:26.345Z,95.63
2023-10-10T13:00:21.506Z,95.63
2023-10-10T13:01:21.512Z,84.38
2023-10-10T13:02:21.534Z,84.38